sensor_id;sensor_type;location;lat;lon;timestamp;pressure;altitude;pressure_sealevel;temperature;humidity
24302;BME280;12421;49.732;20.078;2023-07-31T00:08:18;96474.59;;;14.93;81.21
24302;BME280;12421;49.732;20.078;2023-07-31T00:18:23;96473.69;;;14.94;82.03
24302;BME280;12421;49.732;20.078;2023-07-31T00:28:27;96473.23;;;14.96;81.99
24302;BME280;12421;49.732;20.078;2023-07-31T00:38:32;96473.96;;;15.01;82.09
24302;BME280;12421;49.732;20.078;2023-07-31T00:48:37;96478.46;;;14.78;82.17
24302;BME280;12421;49.732;20.078;2023-07-31T00:58:41;96483.80;;;14.67;82.90
24302;BME280;12421;49.732;20.078;2023-07-31T01:19:22;96481.98;;;14.64;83.77
24302;BME280;12421;49.732;20.078;2023-07-31T01:29:34;96480.81;;;14.67;84.56
24302;BME280;12421;49.732;20.078;2023-07-31T01:39:41;96484.03;;;14.76;84.84
24302;BME280;12421;49.732;20.078;2023-07-31T01:49:44;96488.27;;;14.81;84.99
24302;BME280;12421;49.732;20.078;2023-07-31T01:59:48;96487.75;;;14.81;85.08
24302;BME280;12421;49.732;20.078;2023-07-31T02:09:51;96491.40;;;14.92;85.27
24302;BME280;12421;49.732;20.078;2023-07-31T02:19:56;96487.58;;;15.15;85.43
24302;BME280;12421;49.732;20.078;2023-07-31T02:30:00;96492.64;;;15.17;84.91
24302;BME280;12421;49.732;20.078;2023-07-31T02:40:05;96501.41;;;15.19;85.87
24302;BME280;12421;49.732;20.078;2023-07-31T02:50:10;96508.23;;;15.46;86.41
24302;BME280;12421;49.732;20.078;2023-07-31T03:00:14;96510.27;;;15.59;86.28
24302;BME280;12421;49.732;20.078;2023-07-31T03:10:18;96514.64;;;15.55;86.10
24302;BME280;12421;49.732;20.078;2023-07-31T03:20:22;96521.91;;;15.64;86.51
24302;BME280;12421;49.732;20.078;2023-07-31T03:30:26;96524.12;;;15.71;86.65
24302;BME280;12421;49.732;20.078;2023-07-31T03:40:30;96525.73;;;15.88;87.12
24302;BME280;12421;49.732;20.078;2023-07-31T03:50:35;96519.98;;;16.05;88.01
24302;BME280;12421;49.732;20.078;2023-07-31T04:00:40;96523.95;;;16.38;89.47
24302;BME280;12421;49.732;20.078;2023-07-31T04:10:44;96516.43;;;16.75;88.87
24302;BME280;12421;49.732;20.078;2023-07-31T04:20:48;96526.80;;;17.15;87.62
24302;BME280;12421;49.732;20.078;2023-07-31T04:30:52;96540.49;;;17.42;85.36
24302;BME280;12421;49.732;20.078;2023-07-31T04:41:22;96548.52;;;17.70;83.94
24302;BME280;12421;49.732;20.078;2023-07-31T04:51:27;96558.53;;;17.99;82.64
24302;BME280;12421;49.732;20.078;2023-07-31T05:01:31;96571.08;;;18.20;81.21
24302;BME280;12421;49.732;20.078;2023-07-31T05:11:36;96574.52;;;18.30;81.09
24302;BME280;12421;49.732;20.078;2023-07-31T05:21:40;96575.79;;;18.52;81.49
24302;BME280;12421;49.732;20.078;2023-07-31T05:31:43;96579.52;;;18.70;80.59
24302;BME280;12421;49.732;20.078;2023-07-31T05:41:48;96581.61;;;18.64;78.91
24302;BME280;12421;49.732;20.078;2023-07-31T05:51:51;96587.86;;;18.70;79.24
24302;BME280;12421;49.732;20.078;2023-07-31T06:01:54;96594.16;;;18.62;77.35
24302;BME280;12421;49.732;20.078;2023-07-31T06:11:58;96600.69;;;18.74;77.30
24302;BME280;12421;49.732;20.078;2023-07-31T06:22:01;96604.46;;;18.80;76.77
24302;BME280;12421;49.732;20.078;2023-07-31T06:32:05;96600.04;;;18.87;75.66
24302;BME280;12421;49.732;20.078;2023-07-31T06:42:09;96596.06;;;19.13;75.02
24302;BME280;12421;49.732;20.078;2023-07-31T06:52:13;96588.73;;;19.32;74.12
24302;BME280;12421;49.732;20.078;2023-07-31T07:02:17;96594.34;;;19.38;73.50
24302;BME280;12421;49.732;20.078;2023-07-31T07:12:20;96595.36;;;19.66;73.28
24302;BME280;12421;49.732;20.078;2023-07-31T07:22:24;96590.59;;;20.28;72.06
24302;BME280;12421;49.732;20.078;2023-07-31T07:32:29;96590.60;;;20.82;70.99
24302;BME280;12421;49.732;20.078;2023-07-31T07:42:35;96605.50;;;20.68;68.37
24302;BME280;12421;49.732;20.078;2023-07-31T07:52:40;96615.33;;;20.45;68.81
24302;BME280;12421;49.732;20.078;2023-07-31T08:02:44;96621.55;;;20.74;68.96
24302;BME280;12421;49.732;20.078;2023-07-31T08:12:49;96624.48;;;21.56;68.36
24302;BME280;12421;49.732;20.078;2023-07-31T08:22:52;96626.12;;;22.41;65.08
24302;BME280;12421;49.732;20.078;2023-07-31T08:32:57;96637.80;;;22.82;63.57
24302;BME280;12421;49.732;20.078;2023-07-31T08:43:01;96639.53;;;23.16;62.09
24302;BME280;12421;49.732;20.078;2023-07-31T08:53:05;96652.39;;;23.34;59.60
24302;BME280;12421;49.732;20.078;2023-07-31T09:03:12;96646.69;;;23.49;58.45
24302;BME280;12421;49.732;20.078;2023-07-31T09:13:16;96642.86;;;24.41;57.24
24302;BME280;12421;49.732;20.078;2023-07-31T09:23:20;96647.20;;;24.58;56.04
24302;BME280;12421;49.732;20.078;2023-07-31T09:33:26;96645.84;;;24.62;56.05
24302;BME280;12421;49.732;20.078;2023-07-31T09:43:30;96633.61;;;24.55;56.05
24302;BME280;12421;49.732;20.078;2023-07-31T09:53:34;96617.69;;;24.67;55.34
24302;BME280;12421;49.732;20.078;2023-07-31T10:03:38;96611.31;;;24.43;54.80
24302;BME280;12421;49.732;20.078;2023-07-31T10:13:46;96601.60;;;24.18;55.48
24302;BME280;12421;49.732;20.078;2023-07-31T10:23:52;96598.27;;;24.09;55.88
24302;BME280;12421;49.732;20.078;2023-07-31T10:33:59;96596.02;;;24.08;54.42
24302;BME280;12421;49.732;20.078;2023-07-31T10:44:09;96587.13;;;24.02;54.04
24302;BME280;12421;49.732;20.078;2023-07-31T10:54:18;96573.39;;;24.11;53.68
24302;BME280;12421;49.732;20.078;2023-07-31T11:04:25;96558.76;;;23.87;54.54
24302;BME280;12421;49.732;20.078;2023-07-31T11:14:29;96548.88;;;23.92;53.05
24302;BME280;12421;49.732;20.078;2023-07-31T11:24:34;96531.60;;;23.78;51.68
24302;BME280;12421;49.732;20.078;2023-07-31T11:34:55;96532.13;;;24.09;56.10
24302;BME280;12421;49.732;20.078;2023-07-31T11:44:58;96521.23;;;24.82;54.09
24302;BME280;12421;49.732;20.078;2023-07-31T11:55:07;96527.38;;;25.32;52.52
24302;BME280;12421;49.732;20.078;2023-07-31T12:05:15;96520.41;;;25.66;52.89
24302;BME280;12421;49.732;20.078;2023-07-31T12:15:18;96515.98;;;25.97;50.62
24302;BME280;12421;49.732;20.078;2023-07-31T12:25:31;96503.20;;;26.00;51.71
24302;BME280;12421;49.732;20.078;2023-07-31T12:35:44;96486.02;;;25.67;47.84
24302;BME280;12421;49.732;20.078;2023-07-31T12:45:49;96473.73;;;25.49;49.26
24302;BME280;12421;49.732;20.078;2023-07-31T12:55:55;96473.96;;;25.44;48.77
24302;BME280;12421;49.732;20.078;2023-07-31T13:05:59;96470.84;;;24.98;50.27
24302;BME280;12421;49.732;20.078;2023-07-31T13:16:28;96453.20;;;24.82;49.23
24302;BME280;12421;49.732;20.078;2023-07-31T13:26:32;96440.06;;;24.85;48.77
24302;BME280;12421;49.732;20.078;2023-07-31T13:36:35;96430.55;;;24.99;48.64
24302;BME280;12421;49.732;20.078;2023-07-31T13:46:41;96432.05;;;25.09;49.74
24302;BME280;12421;49.732;20.078;2023-07-31T13:56:45;96420.02;;;25.14;48.20
24302;BME280;12421;49.732;20.078;2023-07-31T14:06:49;96417.96;;;25.08;47.40
24302;BME280;12421;49.732;20.078;2023-07-31T14:16:56;96414.70;;;24.99;49.93
24302;BME280;12421;49.732;20.078;2023-07-31T14:26:59;96407.63;;;24.95;50.07
24302;BME280;12421;49.732;20.078;2023-07-31T14:37:07;96407.07;;;24.91;49.73
24302;BME280;12421;49.732;20.078;2023-07-31T14:47:25;96395.27;;;25.02;50.24
24302;BME280;12421;49.732;20.078;2023-07-31T14:57:31;96392.09;;;24.94;48.68
24302;BME280;12421;49.732;20.078;2023-07-31T15:07:38;96384.27;;;24.60;51.58
24302;BME280;12421;49.732;20.078;2023-07-31T15:17:45;96377.44;;;24.24;52.10
24302;BME280;12421;49.732;20.078;2023-07-31T15:27:49;96369.56;;;24.29;51.92
24302;BME280;12421;49.732;20.078;2023-07-31T15:37:52;96374.19;;;24.55;52.03
24302;BME280;12421;49.732;20.078;2023-07-31T15:47:57;96373.94;;;24.42;50.99
24302;BME280;12421;49.732;20.078;2023-07-31T15:58:04;96366.05;;;24.11;54.58
24302;BME280;12421;49.732;20.078;2023-07-31T16:08:08;96357.05;;;23.94;54.84
24302;BME280;12421;49.732;20.078;2023-07-31T16:18:12;96349.80;;;23.95;55.51
24302;BME280;12421;49.732;20.078;2023-07-31T16:28:24;96354.42;;;23.81;56.57
24302;BME280;12421;49.732;20.078;2023-07-31T16:38:29;96352.89;;;23.55;58.47
24302;BME280;12421;49.732;20.078;2023-07-31T16:48:32;96356.32;;;23.20;58.92
24302;BME280;12421;49.732;20.078;2023-07-31T16:58:37;96358.25;;;22.84;60.56
24302;BME280;12421;49.732;20.078;2023-07-31T17:08:41;96355.88;;;22.45;62.21
24302;BME280;12421;49.732;20.078;2023-07-31T17:18:46;96355.26;;;22.20;63.22
24302;BME280;12421;49.732;20.078;2023-07-31T17:28:50;96359.73;;;21.89;63.86
24302;BME280;12421;49.732;20.078;2023-07-31T17:38:54;96369.05;;;21.53;65.06
24302;BME280;12421;49.732;20.078;2023-07-31T17:48:58;96372.26;;;21.19;66.03
24302;BME280;12421;49.732;20.078;2023-07-31T17:59:02;96374.70;;;20.73;66.48
24302;BME280;12421;49.732;20.078;2023-07-31T18:09:08;96381.48;;;20.21;67.29
24302;BME280;12421;49.732;20.078;2023-07-31T18:19:14;96399.58;;;19.76;68.44
24302;BME280;12421;49.732;20.078;2023-07-31T18:29:17;96402.65;;;19.26;69.59
24302;BME280;12421;49.732;20.078;2023-07-31T18:39:24;96403.42;;;18.78;70.33
24302;BME280;12421;49.732;20.078;2023-07-31T18:49:31;96405.02;;;18.18;71.11
24302;BME280;12421;49.732;20.078;2023-07-31T18:59:34;96412.53;;;17.77;72.61
24302;BME280;12421;49.732;20.078;2023-07-31T19:09:41;96424.82;;;17.34;73.69
24302;BME280;12421;49.732;20.078;2023-07-31T19:19:45;96424.41;;;17.04;74.64
24302;BME280;12421;49.732;20.078;2023-07-31T19:29:53;96419.20;;;16.81;74.93
24302;BME280;12421;49.732;20.078;2023-07-31T19:39:58;96426.78;;;16.49;75.20
24302;BME280;12421;49.732;20.078;2023-07-31T19:50:03;96437.38;;;16.06;75.72
24302;BME280;12421;49.732;20.078;2023-07-31T20:00:07;96442.41;;;15.73;76.72
24302;BME280;12421;49.732;20.078;2023-07-31T20:10:14;96424.23;;;15.45;77.13
24302;BME280;12421;49.732;20.078;2023-07-31T20:20:18;96418.33;;;15.28;77.88
24302;BME280;12421;49.732;20.078;2023-07-31T20:30:22;96409.59;;;15.01;78.30
24302;BME280;12421;49.732;20.078;2023-07-31T20:40:26;96391.83;;;14.85;78.55
24302;BME280;12421;49.732;20.078;2023-07-31T20:50:33;96393.02;;;14.71;78.58
24302;BME280;12421;49.732;20.078;2023-07-31T21:00:38;96398.34;;;14.46;78.92
24302;BME280;12421;49.732;20.078;2023-07-31T21:10:43;96387.83;;;14.38;79.36
24302;BME280;12421;49.732;20.078;2023-07-31T21:20:47;96381.91;;;14.31;79.52
24302;BME280;12421;49.732;20.078;2023-07-31T21:30:51;96373.60;;;14.10;79.38
24302;BME280;12421;49.732;20.078;2023-07-31T21:40:55;96370.94;;;14.05;79.97
24302;BME280;12421;49.732;20.078;2023-07-31T21:50:59;96356.23;;;13.90;79.88
24302;BME280;12421;49.732;20.078;2023-07-31T22:01:03;96339.58;;;13.82;79.88
24302;BME280;12421;49.732;20.078;2023-07-31T22:11:07;96335.50;;;13.77;80.04
24302;BME280;12421;49.732;20.078;2023-07-31T22:21:10;96326.55;;;13.65;80.01
24302;BME280;12421;49.732;20.078;2023-07-31T22:31:16;96317.09;;;13.36;80.28
24302;BME280;12421;49.732;20.078;2023-07-31T22:41:20;96312.14;;;13.30;80.80
24302;BME280;12421;49.732;20.078;2023-07-31T22:51:23;96301.52;;;13.21;81.02
24302;BME280;12421;49.732;20.078;2023-07-31T23:01:27;96289.48;;;13.11;81.05
24302;BME280;12421;49.732;20.078;2023-07-31T23:11:30;96277.90;;;12.92;81.22
24302;BME280;12421;49.732;20.078;2023-07-31T23:21:34;96286.14;;;12.82;82.28
24302;BME280;12421;49.732;20.078;2023-07-31T23:31:38;96286.45;;;12.83;82.29
24302;BME280;12421;49.732;20.078;2023-07-31T23:41:42;96277.47;;;12.89;81.96
24302;BME280;12421;49.732;20.078;2023-07-31T23:51:49;96269.66;;;12.91;81.75
